If you wish to contribute or participate in the discussions about articles you are invited to join SKYbrary as a registered user

 Actions

Memanbetsu Airport

From SKYbrary Wiki

RJCM
Airport
ICAO: RJCM – IATA: MMB
Summary
Name Memanbetsu Airport
Region Asia and Pacific
Territory Japan JP.gif
Location Memanbetsu, Okhotsk Subprefecture
Serving Ozora
Elevation 33.223 m
109 ft33.223 m
Coordinates 43° 52' 53.11" N, 144° 9' 31.73" E
Runways
Designator Length Width Surface ROPS
18/36 2500 m8,202.1 ft
46 m150.919 ft
ASP yes/yes


METAR
Observation RJCM 101000Z 19009KT 9999 FEW010 SCT025 BKN035 14/10 Q1011
Station Memambetsu Airport
Date/Time 10 June 2019 10:00:00
Wind direction 190°
Wind speed 09 kts
Lowest cloud amount few clouds
Temperature 14°C
Dew point 10°C
Humidity 76%
QNH 1011 hPa
Weather condition n/a

Airport in the Memanbetsu section of Ōzora, a town in Hokkaidō, Japan.

Climatology

Humid Continental climate (Köppen climate classification Dfb)

Maps

Terrain

Loading map...

Airport Layout

Loading map...


Accidents & Serious Incidents at or in vicinity of RJCM

None on SKYbrary